Hlavní strana
METAR-TAF:

METAR-TAF

Letiště :

Cervia, Itálie

zeměpisná šířka: 44-13N, zeměpisná délka: 012-18E, výška: 6 m

Aktuální stav počasí

Zpráva byla vytvořena před 1 hodinou a 5 minutami, v 09:55 UTC
Severoseverozápadní vítr 6 kt
Teplota 29°C
Vlhkost vzduchu 70%
Tlak 1015 hPa
Viditelnost 10 km a více
Žádná oblačnost pod 1500 m, nevyskytují se cumulonimby.

METAR: LIPC 200955Z 34006KT CAVOK 29/23 Q1015 RMK SKC VIS MIN 9999 WIND THR11 30006KT WIND THR29 /////KT BLU

Čas: 13:00 (11:00 UTC)

Předpověď počasí

Zpráva byla vytvořena před 3 hodinami a 0 minutami, v 08:00 UTC
Předpověď platná od 20 v 09 UTC do 20 v 18 UTC
Severovýchodní vítr 10 kt
Viditelnost 10 km a více
Skoro jasno ve výšce 5000 ft

TAF: LIPC 200800Z 2009/2018 04010KT 9999 FEW050

Stav a předpovědi počasí z více než 4 000 letišť (zprávy METAR a TAF).

Červené a žluté tečky na mapě představují dostupné meteorologické stanice.

Když kurzor umístíte na tečku, zobrazí se název stanice.

Pak kliknutím zobrazíte stav a předpověď počasí.

Chcete-li změnit mapu, kliknutím na zelené tlačítko se znaménkem +mapu přiblížíte, kliknutím na zelené tlačítko se znaménkem – mapu oddálíte a kliknutím na zelené šipky přejdete na sousední mapy.


METAR-TAF: